HTWT2: E Fk Little Wichita Rv nr Henrietta, TX

Data processed at Thu May 23 2019 23:50


All information presented herein is the property of the government of the United States of America and may be revised or deleted at any time without prior notice.
Dissemination of this information without the expressed written consent of the Public Affairs Office, Tulsa District U.S. Army Corps of Engineers is strictly prohibited.
These data are gathered electronically and, as presented, have not undergone any form of quality control. These data are not guaranteed to be valid or correct.
Go to home page.
Go to station list.
Go to home page.

Downstream station:


Previous Day
Next Day
Current Day
    
SHEF ID:       HTWT2     E Fk Little Wichita Rv nr Henrie
STATION TYPE:  

                STAGE  RIV-FLOW   VOLTAGE  BAT-LOAD
                   ft       cfs      volt      volt
              Ccp-Rev   Ccp-Rev   Ccp-Rev   Ccp-Rev
(US/Central)
05/23 00:00     12.13       364     12.99     11.42
05/23 01:00     11.71       323     12.97     11.42
05/23 02:00     11.24       280     12.96     11.42
05/23 03:00     10.75       238     12.97     11.42
05/23 04:00     10.28       202     12.94     11.42
05/23 05:00      9.84       170     12.94     11.42
05/23 06:00      9.46       145     12.91     11.37
05/23 07:00      9.18       128     12.91     11.37
05/23 08:00      8.96       115     12.97     11.37
05/23 09:00      8.79       106     13.13     11.37
05/23 10:00      8.64        98     13.32     11.54
05/23 11:00      8.49        91     13.44     11.72
05/23 12:00      8.37        85     13.66     11.83
05/23 13:00      8.26        80     14.44     12.01
05/23 14:00      8.16        76     14.33     12.36
05/23 15:00      8.06        72     14.42     12.13
05/23 16:00      7.97        68     14.16     12.24
05/23 17:00      7.89        65     14.31     12.24
05/23 18:00      7.80        61     14.32     12.19
05/23 19:00      7.74        59     13.52     12.19
05/23 20:00      7.67        56      ----      ----
05/23 21:00      7.60        54     13.02     11.60
05/23 22:00      7.55        52     12.96     11.42
05/23 23:00      7.49        50     12.99     11.42